sensor_id;sensor_type;location;lat;lon;timestamp;P1;durP1;ratioP1;P2;durP2;ratioP2
4961;SDS011;2496;52.468;13.342;2023-05-10T00:01:30;15.50;;;7.50;;
4961;SDS011;2496;52.468;13.342;2023-05-10T00:03:57;19.70;;;7.20;;
4961;SDS011;2496;52.468;13.342;2023-05-10T00:06:24;15.00;;;7.73;;
4961;SDS011;2496;52.468;13.342;2023-05-10T00:08:51;15.80;;;9.00;;
4961;SDS011;2496;52.468;13.342;2023-05-10T00:11:18;17.67;;;7.50;;
4961;SDS011;2496;52.468;13.342;2023-05-10T00:13:47;15.17;;;7.20;;
4961;SDS011;2496;52.468;13.342;2023-05-10T00:16:14;12.40;;;6.33;;
4961;SDS011;2496;52.468;13.342;2023-05-10T00:18:41;13.17;;;7.53;;
4961;SDS011;2496;52.468;13.342;2023-05-10T00:21:08;15.47;;;7.50;;
4961;SDS011;2496;52.468;13.342;2023-05-10T00:23:35;19.73;;;9.53;;
4961;SDS011;2496;52.468;13.342;2023-05-10T00:26:02;50.00;;;20.23;;
4961;SDS011;2496;52.468;13.342;2023-05-10T00:28:29;16.40;;;7.27;;
4961;SDS011;2496;52.468;13.342;2023-05-10T00:30:57;85.33;;;20.23;;
4961;SDS011;2496;52.468;13.342;2023-05-10T00:33:24;12.60;;;5.77;;
4961;SDS011;2496;52.468;13.342;2023-05-10T00:35:52;14.97;;;7.30;;
4961;SDS011;2496;52.468;13.342;2023-05-10T00:38:18;14.60;;;6.80;;
4961;SDS011;2496;52.468;13.342;2023-05-10T00:40:45;37.53;;;12.83;;
4961;SDS011;2496;52.468;13.342;2023-05-10T00:43:12;17.23;;;6.73;;
4961;SDS011;2496;52.468;13.342;2023-05-10T00:45:39;15.00;;;6.70;;
4961;SDS011;2496;52.468;13.342;2023-05-10T00:48:08;29.00;;;21.33;;
4961;SDS011;2496;52.468;13.342;2023-05-10T00:50:35;63.77;;;11.57;;
4961;SDS011;2496;52.468;13.342;2023-05-10T00:53:03;12.40;;;6.60;;
4961;SDS011;2496;52.468;13.342;2023-05-10T00:55:30;52.40;;;9.60;;
4961;SDS011;2496;52.468;13.342;2023-05-10T00:57:57;12.00;;;6.40;;
4961;SDS011;2496;52.468;13.342;2023-05-10T01:00:24;16.03;;;6.67;;
4961;SDS011;2496;52.468;13.342;2023-05-10T01:02:52;23.63;;;14.10;;
4961;SDS011;2496;52.468;13.342;2023-05-10T01:05:21;12.40;;;6.57;;
4961;SDS011;2496;52.468;13.342;2023-05-10T01:07:48;12.53;;;6.37;;
4961;SDS011;2496;52.468;13.342;2023-05-10T01:10:15;13.20;;;6.50;;
4961;SDS011;2496;52.468;13.342;2023-05-10T01:12:43;13.70;;;7.00;;
4961;SDS011;2496;52.468;13.342;2023-05-10T01:15:12;12.17;;;6.30;;
4961;SDS011;2496;52.468;13.342;2023-05-10T01:17:41;12.70;;;7.30;;
4961;SDS011;2496;52.468;13.342;2023-05-10T01:20:10;11.53;;;6.83;;
4961;SDS011;2496;52.468;13.342;2023-05-10T01:26:13;15.90;;;7.00;;
4961;SDS011;2496;52.468;13.342;2023-05-10T01:32:17;11.97;;;6.77;;
4961;SDS011;2496;52.468;13.342;2023-05-10T01:34:54;71.63;;;18.13;;
4961;SDS011;2496;52.468;13.342;2023-05-10T01:37:29;11.60;;;6.90;;
4961;SDS011;2496;52.468;13.342;2023-05-10T01:40:04;41.67;;;10.80;;
4961;SDS011;2496;52.468;13.342;2023-05-10T01:42:39;13.80;;;7.10;;
4961;SDS011;2496;52.468;13.342;2023-05-10T01:45:14;12.27;;;7.17;;
4961;SDS011;2496;52.468;13.342;2023-05-10T01:47:50;29.57;;;12.77;;
4961;SDS011;2496;52.468;13.342;2023-05-10T01:50:28;13.90;;;6.67;;
4961;SDS011;2496;52.468;13.342;2023-05-10T01:52:57;12.57;;;6.97;;
4961;SDS011;2496;52.468;13.342;2023-05-10T01:55:27;12.37;;;6.70;;
4961;SDS011;2496;52.468;13.342;2023-05-10T01:57:59;11.87;;;6.73;;
4961;SDS011;2496;52.468;13.342;2023-05-10T02:00:29;16.10;;;6.97;;
4961;SDS011;2496;52.468;13.342;2023-05-10T02:02:58;106.40;;;16.17;;
4961;SDS011;2496;52.468;13.342;2023-05-10T02:05:28;11.90;;;7.20;;
4961;SDS011;2496;52.468;13.342;2023-05-10T02:07:58;12.10;;;6.90;;
4961;SDS011;2496;52.468;13.342;2023-05-10T02:10:27;15.10;;;6.83;;
4961;SDS011;2496;52.468;13.342;2023-05-10T02:12:54;12.77;;;7.10;;
4961;SDS011;2496;52.468;13.342;2023-05-10T02:15:24;9.50;;;5.60;;
4961;SDS011;2496;52.468;13.342;2023-05-10T02:17:54;11.13;;;6.80;;
4961;SDS011;2496;52.468;13.342;2023-05-10T02:20:23;12.30;;;7.30;;
4961;SDS011;2496;52.468;13.342;2023-05-10T02:22:52;11.03;;;6.83;;
4961;SDS011;2496;52.468;13.342;2023-05-10T02:25:22;12.37;;;8.00;;
4961;SDS011;2496;52.468;13.342;2023-05-10T02:27:50;9.13;;;6.00;;
4961;SDS011;2496;52.468;13.342;2023-05-10T02:30:20;12.67;;;7.07;;
4961;SDS011;2496;52.468;13.342;2023-05-10T02:32:48;11.23;;;6.13;;
4961;SDS011;2496;52.468;13.342;2023-05-10T02:35:16;13.77;;;5.90;;
4961;SDS011;2496;52.468;13.342;2023-05-10T02:37:46;9.87;;;6.63;;
4961;SDS011;2496;52.468;13.342;2023-05-10T02:40:14;12.37;;;6.70;;
4961;SDS011;2496;52.468;13.342;2023-05-10T02:42:42;16.20;;;6.67;;
4961;SDS011;2496;52.468;13.342;2023-05-10T02:45:12;13.97;;;7.83;;
4961;SDS011;2496;52.468;13.342;2023-05-10T02:47:41;11.27;;;6.73;;
4961;SDS011;2496;52.468;13.342;2023-05-10T02:50:09;10.40;;;6.73;;
4961;SDS011;2496;52.468;13.342;2023-05-10T02:52:39;14.47;;;7.27;;
4961;SDS011;2496;52.468;13.342;2023-05-10T02:55:11;13.53;;;7.13;;
4961;SDS011;2496;52.468;13.342;2023-05-10T02:57:41;12.27;;;7.33;;
4961;SDS011;2496;52.468;13.342;2023-05-10T03:00:12;10.23;;;6.53;;
4961;SDS011;2496;52.468;13.342;2023-05-10T03:02:39;9.93;;;6.20;;
4961;SDS011;2496;52.468;13.342;2023-05-10T03:05:07;11.50;;;6.70;;
4961;SDS011;2496;52.468;13.342;2023-05-10T03:07:34;12.83;;;6.27;;
4961;SDS011;2496;52.468;13.342;2023-05-10T03:10:02;11.50;;;7.23;;
4961;SDS011;2496;52.468;13.342;2023-05-10T03:12:33;11.87;;;6.30;;
4961;SDS011;2496;52.468;13.342;2023-05-10T03:15:10;11.90;;;6.53;;
4961;SDS011;2496;52.468;13.342;2023-05-10T03:17:45;129.30;;;32.93;;
4961;SDS011;2496;52.468;13.342;2023-05-10T03:20:16;9.03;;;5.87;;
4961;SDS011;2496;52.468;13.342;2023-05-10T03:22:50;9.47;;;5.90;;
4961;SDS011;2496;52.468;13.342;2023-05-10T03:25:21;15.63;;;5.60;;
4961;SDS011;2496;52.468;13.342;2023-05-10T03:27:50;10.60;;;5.33;;
4961;SDS011;2496;52.468;13.342;2023-05-10T03:30:18;11.00;;;6.20;;
4961;SDS011;2496;52.468;13.342;2023-05-10T03:32:46;10.87;;;6.00;;
4961;SDS011;2496;52.468;13.342;2023-05-10T03:35:13;11.00;;;6.10;;
4961;SDS011;2496;52.468;13.342;2023-05-10T03:37:40;14.43;;;7.40;;
4961;SDS011;2496;52.468;13.342;2023-05-10T03:40:07;13.00;;;6.13;;
4961;SDS011;2496;52.468;13.342;2023-05-10T03:42:36;10.53;;;6.33;;
4961;SDS011;2496;52.468;13.342;2023-05-10T03:45:04;11.30;;;6.00;;
4961;SDS011;2496;52.468;13.342;2023-05-10T03:47:32;14.80;;;5.67;;
4961;SDS011;2496;52.468;13.342;2023-05-10T03:49:59;9.07;;;5.37;;
4961;SDS011;2496;52.468;13.342;2023-05-10T03:52:27;9.30;;;5.60;;
4961;SDS011;2496;52.468;13.342;2023-05-10T03:54:54;8.83;;;5.20;;
4961;SDS011;2496;52.468;13.342;2023-05-10T03:57:21;87.17;;;24.27;;
4961;SDS011;2496;52.468;13.342;2023-05-10T03:59:48;17.57;;;5.90;;
4961;SDS011;2496;52.468;13.342;2023-05-10T04:02:16;12.43;;;6.07;;
4961;SDS011;2496;52.468;13.342;2023-05-10T04:04:44;9.17;;;5.50;;
4961;SDS011;2496;52.468;13.342;2023-05-10T04:07:11;8.80;;;6.00;;
4961;SDS011;2496;52.468;13.342;2023-05-10T04:09:37;9.50;;;4.93;;
4961;SDS011;2496;52.468;13.342;2023-05-10T04:12:05;9.27;;;5.23;;
4961;SDS011;2496;52.468;13.342;2023-05-10T04:14:32;9.63;;;5.50;;
4961;SDS011;2496;52.468;13.342;2023-05-10T04:16:59;10.50;;;4.90;;
4961;SDS011;2496;52.468;13.342;2023-05-10T04:19:30;14.43;;;5.10;;
4961;SDS011;2496;52.468;13.342;2023-05-10T04:21:57;11.17;;;5.67;;
4961;SDS011;2496;52.468;13.342;2023-05-10T04:24:24;8.43;;;5.53;;
4961;SDS011;2496;52.468;13.342;2023-05-10T04:26:52;10.60;;;5.50;;
4961;SDS011;2496;52.468;13.342;2023-05-10T04:29:21;11.17;;;5.63;;
4961;SDS011;2496;52.468;13.342;2023-05-10T04:31:48;9.10;;;5.50;;
4961;SDS011;2496;52.468;13.342;2023-05-10T04:34:16;22.47;;;9.00;;
4961;SDS011;2496;52.468;13.342;2023-05-10T04:36:44;9.37;;;5.53;;
4961;SDS011;2496;52.468;13.342;2023-05-10T04:39:11;8.80;;;5.47;;
4961;SDS011;2496;52.468;13.342;2023-05-10T04:41:38;10.27;;;5.30;;
4961;SDS011;2496;52.468;13.342;2023-05-10T04:44:05;12.70;;;5.87;;
4961;SDS011;2496;52.468;13.342;2023-05-10T04:46:32;10.00;;;6.40;;
4961;SDS011;2496;52.468;13.342;2023-05-10T04:48:59;9.23;;;4.73;;
4961;SDS011;2496;52.468;13.342;2023-05-10T04:51:26;15.57;;;5.50;;
4961;SDS011;2496;52.468;13.342;2023-05-10T04:53:55;16.77;;;8.33;;
4961;SDS011;2496;52.468;13.342;2023-05-10T04:56:22;11.50;;;5.30;;
4961;SDS011;2496;52.468;13.342;2023-05-10T04:58:49;8.37;;;5.40;;
4961;SDS011;2496;52.468;13.342;2023-05-10T05:01:16;9.87;;;4.80;;
4961;SDS011;2496;52.468;13.342;2023-05-10T05:03:43;9.93;;;5.13;;
4961;SDS011;2496;52.468;13.342;2023-05-10T05:06:10;9.60;;;4.33;;
4961;SDS011;2496;52.468;13.342;2023-05-10T05:08:37;44.43;;;10.00;;
4961;SDS011;2496;52.468;13.342;2023-05-10T05:11:05;12.67;;;5.63;;
4961;SDS011;2496;52.468;13.342;2023-05-10T05:13:32;7.87;;;4.93;;
4961;SDS011;2496;52.468;13.342;2023-05-10T05:16:00;9.10;;;4.90;;
4961;SDS011;2496;52.468;13.342;2023-05-10T05:18:27;13.20;;;4.70;;
4961;SDS011;2496;52.468;13.342;2023-05-10T05:20:54;12.43;;;4.97;;
4961;SDS011;2496;52.468;13.342;2023-05-10T05:23:21;42.73;;;10.93;;
4961;SDS011;2496;52.468;13.342;2023-05-10T05:25:50;73.13;;;15.37;;
4961;SDS011;2496;52.468;13.342;2023-05-10T05:28:19;37.33;;;7.27;;
4961;SDS011;2496;52.468;13.342;2023-05-10T05:30:46;14.57;;;4.83;;
4961;SDS011;2496;52.468;13.342;2023-05-10T05:33:14;14.70;;;5.80;;
4961;SDS011;2496;52.468;13.342;2023-05-10T05:35:41;59.07;;;17.77;;
4961;SDS011;2496;52.468;13.342;2023-05-10T05:38:12;12.27;;;4.73;;
4961;SDS011;2496;52.468;13.342;2023-05-10T05:40:39;12.10;;;5.03;;
4961;SDS011;2496;52.468;13.342;2023-05-10T05:43:06;173.10;;;59.00;;
4961;SDS011;2496;52.468;13.342;2023-05-10T05:45:35;18.87;;;5.10;;
4961;SDS011;2496;52.468;13.342;2023-05-10T05:48:02;18.47;;;12.30;;
4961;SDS011;2496;52.468;13.342;2023-05-10T05:50:29;13.43;;;6.03;;
4961;SDS011;2496;52.468;13.342;2023-05-10T05:52:56;13.90;;;5.37;;
4961;SDS011;2496;52.468;13.342;2023-05-10T05:55:23;11.80;;;4.90;;
4961;SDS011;2496;52.468;13.342;2023-05-10T05:57:50;15.83;;;9.87;;
4961;SDS011;2496;52.468;13.342;2023-05-10T06:00:17;13.63;;;6.10;;
4961;SDS011;2496;52.468;13.342;2023-05-10T06:02:49;13.90;;;5.10;;
4961;SDS011;2496;52.468;13.342;2023-05-10T06:05:16;12.60;;;6.37;;
4961;SDS011;2496;52.468;13.342;2023-05-10T06:07:43;17.00;;;10.23;;
4961;SDS011;2496;52.468;13.342;2023-05-10T06:10:10;12.63;;;4.83;;
4961;SDS011;2496;52.468;13.342;2023-05-10T06:12:37;14.93;;;4.93;;
4961;SDS011;2496;52.468;13.342;2023-05-10T06:15:04;26.07;;;5.03;;
4961;SDS011;2496;52.468;13.342;2023-05-10T06:17:32;15.50;;;5.30;;
4961;SDS011;2496;52.468;13.342;2023-05-10T06:20:00;15.10;;;5.93;;
4961;SDS011;2496;52.468;13.342;2023-05-10T06:22:28;15.13;;;5.20;;
4961;SDS011;2496;52.468;13.342;2023-05-10T06:24:55;16.00;;;7.20;;
4961;SDS011;2496;52.468;13.342;2023-05-10T06:27:22;14.20;;;6.03;;
4961;SDS011;2496;52.468;13.342;2023-05-10T06:29:49;25.67;;;18.90;;
4961;SDS011;2496;52.468;13.342;2023-05-10T06:32:16;174.47;;;32.47;;
4961;SDS011;2496;52.468;13.342;2023-05-10T06:34:43;14.20;;;4.50;;
4961;SDS011;2496;52.468;13.342;2023-05-10T06:37:12;111.10;;;42.93;;
4961;SDS011;2496;52.468;13.342;2023-05-10T06:39:39;12.37;;;4.93;;
4961;SDS011;2496;52.468;13.342;2023-05-10T06:42:07;11.83;;;5.40;;
4961;SDS011;2496;52.468;13.342;2023-05-10T06:44:34;15.10;;;8.43;;
4961;SDS011;2496;52.468;13.342;2023-05-10T06:47:01;23.03;;;14.33;;
4961;SDS011;2496;52.468;13.342;2023-05-10T06:49:29;139.27;;;44.70;;
4961;SDS011;2496;52.468;13.342;2023-05-10T06:51:56;52.23;;;38.47;;
4961;SDS011;2496;52.468;13.342;2023-05-10T06:54:24;13.90;;;4.60;;
4961;SDS011;2496;52.468;13.342;2023-05-10T06:56:51;92.60;;;43.63;;
4961;SDS011;2496;52.468;13.342;2023-05-10T06:59:19;190.80;;;99.63;;
4961;SDS011;2496;52.468;13.342;2023-05-10T07:01:46;14.73;;;6.00;;
4961;SDS011;2496;52.468;13.342;2023-05-10T07:04:13;14.10;;;5.80;;
4961;SDS011;2496;52.468;13.342;2023-05-10T07:06:40;16.13;;;6.43;;
4961;SDS011;2496;52.468;13.342;2023-05-10T07:09:07;14.83;;;6.80;;
4961;SDS011;2496;52.468;13.342;2023-05-10T07:11:35;82.23;;;39.53;;
4961;SDS011;2496;52.468;13.342;2023-05-10T07:14:03;160.97;;;50.27;;
4961;SDS011;2496;52.468;13.342;2023-05-10T07:16:30;14.50;;;6.23;;
4961;SDS011;2496;52.468;13.342;2023-05-10T07:18:57;15.47;;;6.90;;
4961;SDS011;2496;52.468;13.342;2023-05-10T07:21:24;18.87;;;9.03;;
4961;SDS011;2496;52.468;13.342;2023-05-10T07:23:53;20.30;;;14.67;;
4961;SDS011;2496;52.468;13.342;2023-05-10T07:26:20;16.20;;;6.60;;
4961;SDS011;2496;52.468;13.342;2023-05-10T07:28:49;19.23;;;9.50;;
4961;SDS011;2496;52.468;13.342;2023-05-10T07:31:16;65.20;;;14.53;;
4961;SDS011;2496;52.468;13.342;2023-05-10T07:33:43;111.53;;;34.57;;
4961;SDS011;2496;52.468;13.342;2023-05-10T07:36:10;91.73;;;39.20;;
4961;SDS011;2496;52.468;13.342;2023-05-10T07:38:37;17.30;;;10.87;;
4961;SDS011;2496;52.468;13.342;2023-05-10T07:41:05;17.67;;;10.43;;
4961;SDS011;2496;52.468;13.342;2023-05-10T07:43:32;18.63;;;11.13;;
4961;SDS011;2496;52.468;13.342;2023-05-10T07:46:00;20.90;;;15.40;;
4961;SDS011;2496;52.468;13.342;2023-05-10T07:48:27;179.37;;;115.83;;
4961;SDS011;2496;52.468;13.342;2023-05-10T07:50:54;262.40;;;160.60;;
4961;SDS011;2496;52.468;13.342;2023-05-10T07:53:21;127.03;;;109.80;;
4961;SDS011;2496;52.468;13.342;2023-05-10T07:55:50;73.53;;;67.47;;
4961;SDS011;2496;52.468;13.342;2023-05-10T07:58:17;106.60;;;99.47;;
4961;SDS011;2496;52.468;13.342;2023-05-10T08:00:44;110.07;;;103.13;;
4961;SDS011;2496;52.468;13.342;2023-05-10T08:03:12;126.53;;;118.13;;
4961;SDS011;2496;52.468;13.342;2023-05-10T08:05:39;133.30;;;124.77;;
4961;SDS011;2496;52.468;13.342;2023-05-10T08:08:06;916.83;;;727.10;;
4961;SDS011;2496;52.468;13.342;2023-05-10T08:10:33;755.47;;;676.07;;
4961;SDS011;2496;52.468;13.342;2023-05-10T08:13:00;880.53;;;794.10;;
4961;SDS011;2496;52.468;13.342;2023-05-10T08:15:27;1164.50;;;828.73;;
4961;SDS011;2496;52.468;13.342;2023-05-10T08:17:54;1048.47;;;858.10;;
4961;SDS011;2496;52.468;13.342;2023-05-10T08:20:23;1117.13;;;995.03;;
4961;SDS011;2496;52.468;13.342;2023-05-10T08:22:50;1302.33;;;999.90;;
4961;SDS011;2496;52.468;13.342;2023-05-10T08:25:17;1352.90;;;999.90;;
4961;SDS011;2496;52.468;13.342;2023-05-10T08:27:44;1385.97;;;999.90;;
4961;SDS011;2496;52.468;13.342;2023-05-10T08:30:11;1381.73;;;999.90;;
4961;SDS011;2496;52.468;13.342;2023-05-10T08:32:39;1611.40;;;999.90;;
4961;SDS011;2496;52.468;13.342;2023-05-10T08:35:06;1614.77;;;999.90;;
4961;SDS011;2496;52.468;13.342;2023-05-10T08:37:34;1827.53;;;999.90;;
4961;SDS011;2496;52.468;13.342;2023-05-10T08:40:01;1541.80;;;999.90;;
4961;SDS011;2496;52.468;13.342;2023-05-10T08:42:30;1620.33;;;999.90;;
4961;SDS011;2496;52.468;13.342;2023-05-10T08:45:01;1690.33;;;999.90;;
4961;SDS011;2496;52.468;13.342;2023-05-10T08:47:29;1656.37;;;999.90;;
4961;SDS011;2496;52.468;13.342;2023-05-10T08:49:56;1614.53;;;999.90;;
4961;SDS011;2496;52.468;13.342;2023-05-10T08:52:25;1831.37;;;999.90;;
4961;SDS011;2496;52.468;13.342;2023-05-10T08:54:55;1673.13;;;999.90;;
4961;SDS011;2496;52.468;13.342;2023-05-10T08:57:23;1670.17;;;999.90;;
4961;SDS011;2496;52.468;13.342;2023-05-10T08:59:50;1663.17;;;999.90;;
4961;SDS011;2496;52.468;13.342;2023-05-10T09:02:17;1649.20;;;999.90;;
4961;SDS011;2496;52.468;13.342;2023-05-10T09:04:46;1680.93;;;999.90;;
4961;SDS011;2496;52.468;13.342;2023-05-10T09:07:14;1731.93;;;999.90;;
4961;SDS011;2496;52.468;13.342;2023-05-10T09:09:41;1683.77;;;999.90;;
4961;SDS011;2496;52.468;13.342;2023-05-10T09:12:10;1942.27;;;999.90;;
4961;SDS011;2496;52.468;13.342;2023-05-10T09:14:38;1706.83;;;999.90;;
4961;SDS011;2496;52.468;13.342;2023-05-10T09:17:05;1709.27;;;999.90;;
4961;SDS011;2496;52.468;13.342;2023-05-10T09:19:32;74.60;;;68.60;;
4961;SDS011;2496;52.468;13.342;2023-05-10T09:22:00;42.67;;;38.80;;
4961;SDS011;2496;52.468;13.342;2023-05-10T09:24:29;79.13;;;65.40;;
4961;SDS011;2496;52.468;13.342;2023-05-10T09:26:57;34.67;;;31.63;;
4961;SDS011;2496;52.468;13.342;2023-05-10T09:29:26;29.33;;;22.33;;
4961;SDS011;2496;52.468;13.342;2023-05-10T09:32:05;70.07;;;43.40;;
4961;SDS011;2496;52.468;13.342;2023-05-10T09:34:32;42.77;;;37.37;;
4961;SDS011;2496;52.468;13.342;2023-05-10T09:37:01;24.73;;;21.90;;
4961;SDS011;2496;52.468;13.342;2023-05-10T09:39:32;28.90;;;17.40;;
4961;SDS011;2496;52.468;13.342;2023-05-10T09:42:01;21.80;;;14.97;;
4961;SDS011;2496;52.468;13.342;2023-05-10T09:44:31;128.33;;;73.43;;
4961;SDS011;2496;52.468;13.342;2023-05-10T09:46:59;18.90;;;12.73;;
4961;SDS011;2496;52.468;13.342;2023-05-10T09:49:27;17.70;;;12.60;;
4961;SDS011;2496;52.468;13.342;2023-05-10T09:52:01;70.80;;;15.37;;
4961;SDS011;2496;52.468;13.342;2023-05-10T09:54:30;23.03;;;12.50;;
4961;SDS011;2496;52.468;13.342;2023-05-10T09:56:57;19.87;;;14.47;;
4961;SDS011;2496;52.468;13.342;2023-05-10T09:59:25;20.13;;;10.20;;
4961;SDS011;2496;52.468;13.342;2023-05-10T10:01:54;57.73;;;23.87;;
4961;SDS011;2496;52.468;13.342;2023-05-10T10:04:23;17.87;;;13.83;;
4961;SDS011;2496;52.468;13.342;2023-05-10T10:07:00;18.93;;;12.10;;
4961;SDS011;2496;52.468;13.342;2023-05-10T10:09:28;32.67;;;29.47;;
4961;SDS011;2496;52.468;13.342;2023-05-10T10:11:55;17.73;;;9.70;;
4961;SDS011;2496;52.468;13.342;2023-05-10T10:14:22;17.00;;;8.97;;
4961;SDS011;2496;52.468;13.342;2023-05-10T10:16:50;19.83;;;11.43;;
4961;SDS011;2496;52.468;13.342;2023-05-10T10:19:19;18.60;;;8.27;;
4961;SDS011;2496;52.468;13.342;2023-05-10T10:21:46;17.63;;;11.10;;
4961;SDS011;2496;52.468;13.342;2023-05-10T10:24:14;19.83;;;17.03;;
4961;SDS011;2496;52.468;13.342;2023-05-10T10:26:41;18.37;;;8.60;;
4961;SDS011;2496;52.468;13.342;2023-05-10T10:29:16;131.70;;;56.20;;
4961;SDS011;2496;52.468;13.342;2023-05-10T10:31:49;17.03;;;8.33;;
4961;SDS011;2496;52.468;13.342;2023-05-10T10:34:26;96.97;;;26.43;;
4961;SDS011;2496;52.468;13.342;2023-05-10T10:36:54;21.20;;;13.43;;
4961;SDS011;2496;52.468;13.342;2023-05-10T10:39:23;15.70;;;11.67;;
4961;SDS011;2496;52.468;13.342;2023-05-10T10:41:51;171.73;;;48.80;;
4961;SDS011;2496;52.468;13.342;2023-05-10T10:44:27;90.47;;;26.03;;
4961;SDS011;2496;52.468;13.342;2023-05-10T10:47:02;21.97;;;9.30;;
4961;SDS011;2496;52.468;13.342;2023-05-10T10:49:37;15.43;;;8.77;;
4961;SDS011;2496;52.468;13.342;2023-05-10T10:55:00;19.90;;;16.93;;
4961;SDS011;2496;52.468;13.342;2023-05-10T10:57:31;17.20;;;8.87;;
4961;SDS011;2496;52.468;13.342;2023-05-10T11:00:18;14.43;;;10.37;;
4961;SDS011;2496;52.468;13.342;2023-05-10T11:02:47;16.40;;;11.40;;
4961;SDS011;2496;52.468;13.342;2023-05-10T11:05:33;17.87;;;9.60;;
4961;SDS011;2496;52.468;13.342;2023-05-10T11:08:09;33.47;;;21.93;;
4961;SDS011;2496;52.468;13.342;2023-05-10T11:10:49;16.80;;;9.00;;
4961;SDS011;2496;52.468;13.342;2023-05-10T11:13:26;36.07;;;27.37;;
4961;SDS011;2496;52.468;13.342;2023-05-10T11:15:55;14.57;;;7.23;;
4961;SDS011;2496;52.468;13.342;2023-05-10T11:18:24;16.93;;;7.50;;
4961;SDS011;2496;52.468;13.342;2023-05-10T11:20:55;15.33;;;8.07;;
4961;SDS011;2496;52.468;13.342;2023-05-10T11:23:28;14.03;;;6.20;;
4961;SDS011;2496;52.468;13.342;2023-05-10T11:25:56;133.63;;;33.50;;
4961;SDS011;2496;52.468;13.342;2023-05-10T11:28:25;15.47;;;7.23;;
4961;SDS011;2496;52.468;13.342;2023-05-10T11:30:52;17.53;;;7.80;;
4961;SDS011;2496;52.468;13.342;2023-05-10T11:33:20;15.60;;;8.17;;
4961;SDS011;2496;52.468;13.342;2023-05-10T11:35:47;18.53;;;7.17;;
4961;SDS011;2496;52.468;13.342;2023-05-10T11:38:16;50.87;;;15.93;;
4961;SDS011;2496;52.468;13.342;2023-05-10T11:40:43;453.50;;;109.90;;
4961;SDS011;2496;52.468;13.342;2023-05-10T11:43:10;30.90;;;14.07;;
4961;SDS011;2496;52.468;13.342;2023-05-10T11:45:37;15.93;;;6.17;;
4961;SDS011;2496;52.468;13.342;2023-05-10T11:48:06;16.77;;;7.37;;
4961;SDS011;2496;52.468;13.342;2023-05-10T11:50:33;45.27;;;18.80;;
4961;SDS011;2496;52.468;13.342;2023-05-10T11:53:00;18.03;;;8.03;;
4961;SDS011;2496;52.468;13.342;2023-05-10T11:55:29;32.53;;;14.53;;
4961;SDS011;2496;52.468;13.342;2023-05-10T11:58:00;16.73;;;6.40;;
4961;SDS011;2496;52.468;13.342;2023-05-10T12:00:28;14.17;;;8.03;;
4961;SDS011;2496;52.468;13.342;2023-05-10T12:02:56;15.40;;;6.73;;
4961;SDS011;2496;52.468;13.342;2023-05-10T12:05:24;13.67;;;6.37;;
4961;SDS011;2496;52.468;13.342;2023-05-10T12:07:51;52.37;;;26.43;;
4961;SDS011;2496;52.468;13.342;2023-05-10T12:10:24;17.10;;;6.43;;
4961;SDS011;2496;52.468;13.342;2023-05-10T12:12:54;17.80;;;10.03;;
4961;SDS011;2496;52.468;13.342;2023-05-10T12:15:23;57.67;;;18.80;;
4961;SDS011;2496;52.468;13.342;2023-05-10T12:17:52;18.30;;;7.20;;
4961;SDS011;2496;52.468;13.342;2023-05-10T12:20:20;14.37;;;5.87;;
4961;SDS011;2496;52.468;13.342;2023-05-10T12:22:50;61.03;;;18.97;;
4961;SDS011;2496;52.468;13.342;2023-05-10T12:25:18;16.47;;;11.83;;
4961;SDS011;2496;52.468;13.342;2023-05-10T12:27:50;19.80;;;13.13;;
4961;SDS011;2496;52.468;13.342;2023-05-10T12:30:23;13.27;;;5.50;;
4961;SDS011;2496;52.468;13.342;2023-05-10T12:32:51;14.80;;;6.17;;
4961;SDS011;2496;52.468;13.342;2023-05-10T12:35:19;12.93;;;5.20;;
4961;SDS011;2496;52.468;13.342;2023-05-10T12:37:48;13.20;;;5.60;;
4961;SDS011;2496;52.468;13.342;2023-05-10T12:40:16;17.27;;;5.83;;
4961;SDS011;2496;52.468;13.342;2023-05-10T12:42:43;11.90;;;5.33;;
4961;SDS011;2496;52.468;13.342;2023-05-10T12:45:11;13.77;;;5.23;;
4961;SDS011;2496;52.468;13.342;2023-05-10T12:47:39;12.53;;;5.90;;
4961;SDS011;2496;52.468;13.342;2023-05-10T12:50:07;87.97;;;27.07;;
4961;SDS011;2496;52.468;13.342;2023-05-10T12:52:34;15.90;;;5.70;;
4961;SDS011;2496;52.468;13.342;2023-05-10T12:55:01;12.17;;;5.13;;
4961;SDS011;2496;52.468;13.342;2023-05-10T12:57:28;13.83;;;8.20;;
4961;SDS011;2496;52.468;13.342;2023-05-10T12:59:55;14.80;;;6.17;;
4961;SDS011;2496;52.468;13.342;2023-05-10T13:02:22;18.70;;;5.37;;
4961;SDS011;2496;52.468;13.342;2023-05-10T13:04:51;56.00;;;12.73;;
4961;SDS011;2496;52.468;13.342;2023-05-10T13:07:19;114.80;;;44.37;;
4961;SDS011;2496;52.468;13.342;2023-05-10T13:09:46;12.80;;;5.17;;
4961;SDS011;2496;52.468;13.342;2023-05-10T13:12:12;11.13;;;4.73;;
4961;SDS011;2496;52.468;13.342;2023-05-10T13:14:39;12.20;;;6.80;;
4961;SDS011;2496;52.468;13.342;2023-05-10T13:17:06;35.73;;;12.43;;
4961;SDS011;2496;52.468;13.342;2023-05-10T13:19:34;138.80;;;32.60;;
4961;SDS011;2496;52.468;13.342;2023-05-10T13:22:02;11.53;;;5.90;;
4961;SDS011;2496;52.468;13.342;2023-05-10T13:24:29;14.00;;;5.27;;
4961;SDS011;2496;52.468;13.342;2023-05-10T13:26:56;11.67;;;6.27;;
4961;SDS011;2496;52.468;13.342;2023-05-10T13:29:23;17.13;;;5.30;;
4961;SDS011;2496;52.468;13.342;2023-05-10T13:31:50;12.33;;;5.37;;
4961;SDS011;2496;52.468;13.342;2023-05-10T13:34:17;19.63;;;5.07;;
4961;SDS011;2496;52.468;13.342;2023-05-10T13:36:46;45.40;;;12.63;;
4961;SDS011;2496;52.468;13.342;2023-05-10T13:39:15;11.00;;;5.73;;
4961;SDS011;2496;52.468;13.342;2023-05-10T13:41:43;12.10;;;4.20;;
4961;SDS011;2496;52.468;13.342;2023-05-10T13:44:11;10.47;;;4.87;;
4961;SDS011;2496;52.468;13.342;2023-05-10T13:46:39;11.50;;;5.50;;
4961;SDS011;2496;52.468;13.342;2023-05-10T13:49:06;11.73;;;5.47;;
4961;SDS011;2496;52.468;13.342;2023-05-10T13:51:33;10.77;;;4.83;;
4961;SDS011;2496;52.468;13.342;2023-05-10T13:54:00;17.20;;;5.30;;
4961;SDS011;2496;52.468;13.342;2023-05-10T13:56:29;16.33;;;4.80;;
4961;SDS011;2496;52.468;13.342;2023-05-10T13:58:56;9.20;;;4.50;;
4961;SDS011;2496;52.468;13.342;2023-05-10T14:01:23;12.07;;;4.60;;
4961;SDS011;2496;52.468;13.342;2023-05-10T14:03:50;61.07;;;7.17;;
4961;SDS011;2496;52.468;13.342;2023-05-10T14:06:17;12.00;;;5.17;;
4961;SDS011;2496;52.468;13.342;2023-05-10T14:08:44;15.83;;;5.90;;
4961;SDS011;2496;52.468;13.342;2023-05-10T14:11:11;15.27;;;6.93;;
4961;SDS011;2496;52.468;13.342;2023-05-10T14:13:40;62.13;;;9.73;;
4961;SDS011;2496;52.468;13.342;2023-05-10T14:16:07;15.53;;;8.60;;
4961;SDS011;2496;52.468;13.342;2023-05-10T14:18:34;8.90;;;3.63;;
4961;SDS011;2496;52.468;13.342;2023-05-10T14:21:01;12.53;;;4.47;;
4961;SDS011;2496;52.468;13.342;2023-05-10T14:23:29;10.60;;;4.23;;
4961;SDS011;2496;52.468;13.342;2023-05-10T14:25:56;11.60;;;4.37;;
4961;SDS011;2496;52.468;13.342;2023-05-10T14:28:23;11.53;;;4.33;;
4961;SDS011;2496;52.468;13.342;2023-05-10T14:30:52;14.17;;;6.20;;
4961;SDS011;2496;52.468;13.342;2023-05-10T14:33:19;51.80;;;17.13;;
4961;SDS011;2496;52.468;13.342;2023-05-10T14:35:46;20.30;;;4.60;;
4961;SDS011;2496;52.468;13.342;2023-05-10T14:38:13;11.20;;;4.60;;
4961;SDS011;2496;52.468;13.342;2023-05-10T14:40:41;14.27;;;5.20;;
4961;SDS011;2496;52.468;13.342;2023-05-10T14:43:08;10.97;;;5.40;;
4961;SDS011;2496;52.468;13.342;2023-05-10T14:45:35;12.67;;;7.60;;
4961;SDS011;2496;52.468;13.342;2023-05-10T14:48:04;108.70;;;18.20;;
4961;SDS011;2496;52.468;13.342;2023-05-10T14:50:31;9.50;;;5.07;;
4961;SDS011;2496;52.468;13.342;2023-05-10T14:52:58;12.47;;;4.43;;
4961;SDS011;2496;52.468;13.342;2023-05-10T14:55:25;10.77;;;4.00;;
4961;SDS011;2496;52.468;13.342;2023-05-10T14:57:52;10.87;;;4.50;;